createdAt,value
2017-03-27T00:00:29.234Z,0
2017-03-27T00:01:09.683Z,0
2017-03-27T00:01:50.248Z,0
2017-03-27T00:02:30.722Z,0
2017-03-27T00:03:11.227Z,0
2017-03-27T00:03:51.675Z,0
2017-03-27T00:04:32.170Z,0
2017-03-27T00:05:12.711Z,0
2017-03-27T00:05:53.126Z,0
2017-03-27T00:06:33.584Z,0
2017-03-27T00:07:14.157Z,0
2017-03-27T00:07:54.675Z,0
2017-03-27T00:08:35.240Z,0
2017-03-27T00:09:15.660Z,0
2017-03-27T00:09:56.172Z,0
2017-03-27T00:10:36.655Z,0
2017-03-27T00:11:17.161Z,0
2017-03-27T00:11:57.668Z,0
2017-03-27T00:12:38.172Z,0
2017-03-27T00:13:18.816Z,0
2017-03-27T00:13:59.435Z,0
2017-03-27T00:14:39.915Z,0
2017-03-27T00:15:20.617Z,0
2017-03-27T00:16:01.103Z,0
2017-03-27T00:16:41.575Z,0
2017-03-27T00:17:22.251Z,0
2017-03-27T00:18:02.676Z,0
2017-03-27T00:18:43.152Z,0
2017-03-27T00:19:23.624Z,0
2017-03-27T00:20:04.105Z,0
2017-03-27T00:20:44.597Z,0
2017-03-27T00:21:25.082Z,0
2017-03-27T00:22:05.539Z,0
2017-03-27T00:22:46.146Z,0
2017-03-27T00:23:26.575Z,0
2017-03-27T00:24:07.106Z,0
2017-03-27T00:24:47.544Z,0
2017-03-27T00:25:28.051Z,0
2017-03-27T00:26:08.768Z,0
2017-03-27T00:26:49.212Z,0
2017-03-27T00:27:29.807Z,0
2017-03-27T00:28:10.291Z,0
2017-03-27T00:28:50.789Z,0
2017-03-27T00:29:31.269Z,0
2017-03-27T00:30:11.780Z,0
2017-03-27T00:30:52.426Z,0
2017-03-27T00:31:32.918Z,0
2017-03-27T00:32:13.585Z,0
2017-03-27T00:32:54.062Z,0
2017-03-27T00:33:34.526Z,0
2017-03-27T00:34:15.168Z,0
2017-03-27T00:34:55.591Z,0
2017-03-27T00:35:36.119Z,0
2017-03-27T00:36:16.665Z,0
2017-03-27T00:36:57.138Z,0
2017-03-27T00:37:37.556Z,0
2017-03-27T00:38:18.044Z,0
2017-03-27T00:38:58.627Z,0
2017-03-27T00:39:39.136Z,0
2017-03-27T00:40:19.573Z,0
2017-03-27T00:41:00.144Z,0
2017-03-27T00:41:40.638Z,0
2017-03-27T00:42:21.081Z,0
2017-03-27T00:43:01.609Z,0
2017-03-27T00:43:42.086Z,0
2017-03-27T00:44:22.617Z,0
2017-03-27T00:45:03.081Z,0
2017-03-27T00:45:43.615Z,0
2017-03-27T00:46:24.046Z,0
2017-03-27T00:47:04.694Z,0
2017-03-27T00:47:45.331Z,0
2017-03-27T00:48:25.802Z,0
2017-03-27T00:49:06.285Z,0
2017-03-27T00:49:46.789Z,0
2017-03-27T00:50:27.279Z,0
2017-03-27T00:51:07.733Z,0
2017-03-27T00:51:48.285Z,0
2017-03-27T00:52:28.777Z,0
2017-03-27T00:53:09.264Z,0
2017-03-27T00:53:49.744Z,0
2017-03-27T00:54:30.242Z,0
2017-03-27T00:55:10.715Z,0
2017-03-27T00:55:51.233Z,0
2017-03-27T00:56:31.647Z,0
2017-03-27T00:57:12.193Z,0
2017-03-27T00:57:52.648Z,0
2017-03-27T00:58:33.194Z,0
2017-03-27T00:59:13.697Z,0
2017-03-27T00:59:54.159Z,0
2017-03-27T01:00:34.614Z,0
2017-03-27T01:01:15.079Z,0
2017-03-27T01:01:55.691Z,0
2017-03-27T01:02:36.184Z,0
2017-03-27T01:03:16.653Z,0
2017-03-27T01:03:57.167Z,0
2017-03-27T01:04:37.749Z,0
2017-03-27T01:05:18.197Z,0
2017-03-27T01:05:58.689Z,0
2017-03-27T01:06:39.240Z,0
2017-03-27T01:07:19.702Z,0
2017-03-27T01:08:00.277Z,0
2017-03-27T01:08:40.792Z,0
2017-03-27T01:09:21.278Z,0
2017-03-27T01:10:01.725Z,0
2017-03-27T01:23:20.875Z,0
2017-03-27T01:24:07.702Z,0
2017-03-27T01:24:47.266Z,0
2017-03-27T01:25:27.782Z,0
2017-03-27T01:26:08.296Z,0
2017-03-27T01:26:48.839Z,0
2017-03-27T01:27:29.281Z,0
2017-03-27T01:28:09.778Z,0
2017-03-27T01:28:50.292Z,0
2017-03-27T01:29:30.731Z,0
2017-03-27T01:30:11.211Z,0
2017-03-27T01:30:51.723Z,0
2017-03-27T01:31:32.387Z,0
2017-03-27T01:32:13.067Z,0
2017-03-27T01:32:53.510Z,0
2017-03-27T01:33:33.979Z,0
2017-03-27T01:34:14.488Z,0
2017-03-27T01:34:54.981Z,0
2017-03-27T01:35:35.483Z,0
2017-03-27T01:36:15.962Z,0
2017-03-27T01:36:56.406Z,0
2017-03-27T01:37:36.933Z,0
2017-03-27T01:38:17.564Z,0
2017-03-27T01:38:58.024Z,0
2017-03-27T01:39:38.534Z,0
2017-03-27T01:40:19.014Z,0
2017-03-27T01:40:59.503Z,0
2017-03-27T01:41:39.997Z,0
2017-03-27T01:42:20.485Z,0
2017-03-27T01:43:01.009Z,0
2017-03-27T01:43:41.494Z,0
2017-03-27T01:44:21.938Z,0
2017-03-27T01:45:02.435Z,0
2017-03-27T01:45:42.887Z,0
2017-03-27T01:46:23.514Z,0
2017-03-27T01:47:03.912Z,0
2017-03-27T01:47:44.453Z,0
2017-03-27T01:48:24.941Z,0
2017-03-27T01:49:05.451Z,0
2017-03-27T01:49:45.904Z,0
2017-03-27T01:50:26.472Z,0
2017-03-27T01:51:06.902Z,0
2017-03-27T01:51:47.425Z,0
2017-03-27T01:52:27.931Z,0
2017-03-27T01:53:08.443Z,0
2017-03-27T01:53:48.882Z,0
2017-03-27T01:54:29.377Z,0
2017-03-27T01:55:09.867Z,0
2017-03-27T01:55:50.363Z,0
2017-03-27T01:56:30.886Z,0
2017-03-27T01:57:11.412Z,0
2017-03-27T01:57:51.900Z,0
2017-03-27T01:58:32.376Z,0
2017-03-27T01:59:12.881Z,0
2017-03-27T01:59:53.340Z,0
2017-03-27T02:00:33.844Z,0
2017-03-27T02:01:14.351Z,0
2017-03-27T02:01:54.803Z,0
2017-03-27T02:02:35.250Z,0
2017-03-27T02:03:15.767Z,0
2017-03-27T02:03:56.379Z,0
2017-03-27T02:04:36.828Z,0
2017-03-27T02:05:17.322Z,0
2017-03-27T02:05:57.843Z,0
2017-03-27T02:06:38.352Z,0
2017-03-27T02:07:18.767Z,0
2017-03-27T02:07:59.277Z,0
2017-03-27T02:08:39.758Z,0
2017-03-27T02:09:20.246Z,0
2017-03-27T02:10:00.829Z,0
2017-03-27T02:10:41.223Z,0
2017-03-27T02:11:21.685Z,0
2017-03-27T02:12:02.178Z,0
2017-03-27T02:12:42.667Z,0
2017-03-27T02:13:23.170Z,0
2017-03-27T02:14:03.767Z,0
2017-03-27T02:14:44.329Z,0
2017-03-27T02:15:24.794Z,0
2017-03-27T02:16:05.288Z,0
2017-03-27T02:16:45.792Z,0
2017-03-27T02:17:26.284Z,0
2017-03-27T02:18:06.718Z,0
2017-03-27T02:18:47.238Z,0
2017-03-27T02:19:27.685Z,0
2017-03-27T02:20:08.240Z,0
2017-03-27T02:20:48.686Z,0
2017-03-27T02:21:29.156Z,0
2017-03-27T02:22:09.678Z,0
2017-03-27T02:22:50.229Z,0
2017-03-27T02:23:30.732Z,0
2017-03-27T02:24:11.232Z,0
2017-03-27T02:24:51.713Z,0
2017-03-27T02:25:32.232Z,0
2017-03-27T02:26:12.703Z,0
2017-03-27T02:26:53.222Z,0
2017-03-27T02:27:33.770Z,0
2017-03-27T02:28:14.226Z,0
2017-03-27T02:28:54.693Z,0
2017-03-27T02:29:35.198Z,0
2017-03-27T02:30:15.712Z,0
2017-03-27T02:30:56.231Z,0
2017-03-27T02:31:36.741Z,0
2017-03-27T02:32:17.209Z,0
2017-03-27T02:32:57.774Z,0
2017-03-27T02:33:38.227Z,0
2017-03-27T02:34:18.761Z,0
2017-03-27T02:34:59.220Z,0
2017-03-27T02:35:39.738Z,0
2017-03-27T02:36:20.214Z,0
2017-03-27T02:37:00.726Z,0
2017-03-27T02:37:41.170Z,0
2017-03-27T02:38:21.698Z,0
2017-03-27T02:39:02.168Z,0
2017-03-27T02:39:42.700Z,0
2017-03-27T02:40:23.168Z,0
2017-03-27T02:41:03.695Z,0
2017-03-27T02:41:44.198Z,0
2017-03-27T02:42:24.647Z,0
2017-03-27T02:43:05.162Z,0
2017-03-27T02:43:45.758Z,0
2017-03-27T02:44:26.196Z,0
2017-03-27T02:45:06.680Z,0
2017-03-27T02:45:47.179Z,0
2017-03-27T02:46:27.667Z,0
2017-03-27T02:47:08.219Z,0
2017-03-27T02:47:48.682Z,0
2017-03-27T02:48:29.183Z,0
2017-03-27T02:49:09.668Z,0
2017-03-27T02:49:50.231Z,0
2017-03-27T02:50:30.680Z,0
2017-03-27T02:51:11.252Z,0
2017-03-27T02:51:51.626Z,0
2017-03-27T02:52:32.109Z,0
2017-03-27T02:53:12.572Z,0
2017-03-27T02:53:53.115Z,0
2017-03-27T02:54:33.653Z,0
2017-03-27T02:55:14.109Z,0
2017-03-27T02:55:54.551Z,0
2017-03-27T02:56:35.052Z,0
2017-03-27T02:57:15.559Z,0
2017-03-27T02:57:56.071Z,0
2017-03-27T02:58:36.536Z,0
2017-03-27T02:59:17.081Z,0
2017-03-27T02:59:57.529Z,0
2017-03-27T03:00:38.051Z,0
2017-03-27T03:01:18.490Z,0
2017-03-27T03:01:58.977Z,0
2017-03-27T03:02:39.463Z,0
2017-03-27T03:03:19.930Z,0
2017-03-27T03:04:00.477Z,0
2017-03-27T03:04:41.028Z,0
2017-03-27T03:05:21.480Z,0
2017-03-27T03:06:02.008Z,0
2017-03-27T03:06:42.456Z,0
2017-03-27T03:07:22.950Z,0
2017-03-27T03:08:03.414Z,0
2017-03-27T03:08:43.898Z,0
2017-03-27T03:09:24.460Z,0
2017-03-27T03:10:04.895Z,0
2017-03-27T03:10:45.634Z,0
2017-03-27T03:11:25.954Z,0
2017-03-27T03:12:06.475Z,0
2017-03-27T03:12:46.899Z,0
2017-03-27T03:13:27.428Z,0
2017-03-27T03:14:07.942Z,0
2017-03-27T03:14:48.397Z,0
2017-03-27T03:15:28.789Z,0
2017-03-27T03:16:09.343Z,0
2017-03-27T03:16:49.777Z,0
2017-03-27T03:17:30.663Z,0
2017-03-27T03:18:11.070Z,0
2017-03-27T03:18:51.622Z,0
2017-03-27T03:19:32.104Z,0
2017-03-27T03:20:12.616Z,0
2017-03-27T03:20:53.038Z,0
2017-03-27T03:21:33.633Z,0
2017-03-27T03:22:14.180Z,0
2017-03-27T03:22:54.801Z,0
2017-03-27T03:23:35.334Z,0
2017-03-27T03:24:15.755Z,0
2017-03-27T03:24:56.230Z,0
2017-03-27T03:25:36.770Z,0
2017-03-27T03:26:17.241Z,0
2017-03-27T03:26:57.781Z,0
2017-03-27T03:27:38.246Z,0
2017-03-27T03:28:18.715Z,0
2017-03-27T03:28:59.259Z,0
2017-03-27T03:29:39.733Z,0
2017-03-27T03:30:20.237Z,0
2017-03-27T03:31:00.770Z,0
2017-03-27T03:31:41.264Z,0
2017-03-27T03:32:21.824Z,0
2017-03-27T03:33:02.262Z,0
2017-03-27T03:33:42.753Z,0
2017-03-27T03:34:23.257Z,0
2017-03-27T03:35:03.754Z,0
2017-03-27T03:35:44.252Z,0
2017-03-27T03:36:24.657Z,0
2017-03-27T03:37:05.169Z,0
2017-03-27T03:37:45.715Z,0
2017-03-27T03:38:26.203Z,0
2017-03-27T03:39:06.689Z,0
2017-03-27T03:39:47.136Z,0
2017-03-27T03:40:27.650Z,0
2017-03-27T03:41:08.123Z,0
2017-03-27T03:41:48.636Z,0
2017-03-27T03:42:29.072Z,0
2017-03-27T03:43:09.577Z,0
2017-03-27T03:43:50.102Z,0
2017-03-27T03:44:30.609Z,0
2017-03-27T03:45:11.128Z,0
2017-03-27T03:45:51.644Z,0
2017-03-27T03:46:32.065Z,0
2017-03-27T03:47:12.515Z,0
2017-03-27T03:47:53.053Z,0
2017-03-27T03:48:33.536Z,0
2017-03-27T03:49:14.075Z,0
2017-03-27T03:49:54.542Z,0
2017-03-27T03:50:35.048Z,0
2017-03-27T03:51:15.575Z,0
2017-03-27T03:51:56.008Z,0
2017-03-27T03:52:36.513Z,0
2017-03-27T03:53:17.013Z,0
2017-03-27T03:53:57.480Z,0
2017-03-27T03:54:38.021Z,0
2017-03-27T03:55:18.511Z,0
2017-03-27T03:55:58.988Z,0
2017-03-27T03:56:39.429Z,0
2017-03-27T03:57:19.874Z,0
2017-03-27T03:58:00.423Z,0
2017-03-27T03:58:40.938Z,0
2017-03-27T03:59:21.426Z,0
2017-03-27T04:00:01.964Z,0
2017-03-27T04:00:42.432Z,0
2017-03-27T04:01:22.896Z,0
2017-03-27T04:02:03.422Z,0
2017-03-27T04:02:43.979Z,0
2017-03-27T04:03:24.394Z,0
2017-03-27T04:04:04.864Z,0
2017-03-27T04:04:45.415Z,0
2017-03-27T04:05:25.921Z,0
2017-03-27T04:06:06.469Z,0
2017-03-27T04:06:46.902Z,0
2017-03-27T04:07:27.357Z,0
2017-03-27T04:08:07.859Z,0
2017-03-27T04:08:48.339Z,0
2017-03-27T04:09:29.090Z,0
2017-03-27T04:10:09.508Z,0
2017-03-27T04:10:50.017Z,0
2017-03-27T04:11:30.505Z,0
2017-03-27T04:12:11.048Z,0
2017-03-27T04:12:51.550Z,0
2017-03-27T04:13:32.042Z,0
2017-03-27T04:14:12.529Z,0
2017-03-27T04:14:53.144Z,0
2017-03-27T04:15:33.595Z,0
2017-03-27T04:16:14.142Z,0
2017-03-27T04:16:54.617Z,0
2017-03-27T04:17:35.103Z,0
2017-03-27T04:18:15.631Z,0
2017-03-27T04:18:56.132Z,0
2017-03-27T04:19:36.683Z,0
2017-03-27T04:20:17.091Z,0
2017-03-27T04:20:57.591Z,0
2017-03-27T04:21:38.058Z,0
2017-03-27T04:22:18.524Z,0
2017-03-27T04:22:59.086Z,0
2017-03-27T04:23:39.491Z,0
2017-03-27T04:24:20.040Z,0
2017-03-27T04:25:00.527Z,0
2017-03-27T04:25:41.055Z,0
2017-03-27T04:26:21.549Z,0
2017-03-27T04:27:02.097Z,0
2017-03-27T04:27:42.643Z,0
2017-03-27T04:28:23.077Z,0
2017-03-27T04:29:03.584Z,0
2017-03-27T04:29:44.062Z,0
2017-03-27T04:30:24.540Z,0
2017-03-27T04:31:05.063Z,0
2017-03-27T04:31:45.562Z,0
2017-03-27T04:32:26.047Z,0
2017-03-27T04:33:06.489Z,0
2017-03-27T04:33:47.033Z,0
2017-03-27T04:34:27.515Z,0
2017-03-27T04:35:07.956Z,0
2017-03-27T04:35:48.503Z,0
2017-03-27T04:36:28.981Z,0
2017-03-27T04:37:09.475Z,0
2017-03-27T04:37:50.011Z,0
2017-03-27T04:38:30.497Z,0
2017-03-27T04:39:10.973Z,0
2017-03-27T04:39:51.542Z,0
2017-03-27T04:40:31.988Z,0
2017-03-27T04:41:12.579Z,0
2017-03-27T04:41:53.062Z,0
2017-03-27T04:42:33.554Z,0
2017-03-27T04:43:14.088Z,0
2017-03-27T04:43:54.595Z,0
2017-03-27T04:44:35.031Z,0
2017-03-27T04:45:15.565Z,0
2017-03-27T04:45:56.047Z,0
2017-03-27T04:46:36.550Z,0
2017-03-27T04:47:17.030Z,0
2017-03-27T04:47:57.617Z,0
2017-03-27T04:48:38.114Z,0
2017-03-27T04:49:18.627Z,0
2017-03-27T04:49:59.098Z,0
2017-03-27T04:50:39.608Z,0
2017-03-27T04:51:20.066Z,0
2017-03-27T04:52:00.563Z,0
2017-03-27T04:52:41.046Z,0
2017-03-27T04:53:21.686Z,0
2017-03-27T04:54:02.151Z,0
2017-03-27T04:54:42.734Z,0
2017-03-27T04:55:23.223Z,0
2017-03-27T04:56:03.725Z,0
2017-03-27T04:56:44.213Z,0
2017-03-27T04:57:24.664Z,0
2017-03-27T04:58:05.163Z,0
2017-03-27T04:58:45.657Z,0
2017-03-27T04:59:26.133Z,0
2017-03-27T05:00:06.648Z,0
2017-03-27T05:00:47.134Z,0
2017-03-27T05:01:27.674Z,0
2017-03-27T05:02:08.200Z,0
2017-03-27T05:02:48.634Z,0
2017-03-27T05:03:29.239Z,0
2017-03-27T05:04:09.749Z,0
2017-03-27T05:04:50.290Z,0
2017-03-27T05:05:30.749Z,0
2017-03-27T05:06:11.246Z,0
2017-03-27T05:06:51.687Z,0
2017-03-27T05:07:32.269Z,0
2017-03-27T05:08:12.838Z,0
2017-03-27T05:08:53.293Z,0
2017-03-27T05:09:34.094Z,0
2017-03-27T05:10:14.392Z,5
2017-03-27T05:10:54.901Z,5
2017-03-27T05:11:35.401Z,5
2017-03-27T05:12:16.012Z,5
2017-03-27T05:12:56.566Z,5
2017-03-27T05:13:37.063Z,5
2017-03-27T05:14:17.591Z,5
2017-03-27T05:14:58.291Z,5
2017-03-27T05:15:38.848Z,5
2017-03-27T05:16:19.282Z,5
2017-03-27T05:16:59.792Z,5
2017-03-27T05:17:40.248Z,5
2017-03-27T05:18:20.812Z,5
2017-03-27T05:19:01.347Z,5
2017-03-27T05:19:41.803Z,5
2017-03-27T05:20:22.280Z,10
2017-03-27T05:21:02.910Z,10
2017-03-27T05:21:43.275Z,10
2017-03-27T05:22:23.920Z,10
2017-03-27T05:23:04.330Z,10
2017-03-27T05:23:44.827Z,10
2017-03-27T05:24:25.274Z,10
2017-03-27T05:25:05.942Z,10
2017-03-27T05:25:46.411Z,10
2017-03-27T05:26:26.973Z,10
2017-03-27T05:27:07.454Z,15
2017-03-27T05:27:47.949Z,15
2017-03-27T05:28:28.501Z,15
2017-03-27T05:29:08.919Z,15
2017-03-27T05:29:50.459Z,15
2017-03-27T05:30:32.279Z,15
2017-03-27T05:31:12.621Z,15
2017-03-27T05:31:53.080Z,15
2017-03-27T05:32:33.550Z,20
2017-03-27T05:33:14.020Z,20
2017-03-27T05:33:54.459Z,20
2017-03-27T05:34:35.025Z,20
2017-03-27T05:35:15.556Z,20
2017-03-27T05:35:56.039Z,20
2017-03-27T05:36:36.497Z,20
2017-03-27T05:37:16.991Z,20
2017-03-27T05:37:57.473Z,20
2017-03-27T05:38:37.938Z,25
2017-03-27T05:39:24.065Z,25
2017-03-27T05:40:01.608Z,25
2017-03-27T05:40:42.170Z,25
2017-03-27T05:41:22.605Z,25
2017-03-27T05:42:03.141Z,25
2017-03-27T05:42:43.738Z,25
2017-03-27T05:43:24.400Z,25
2017-03-27T05:44:04.820Z,30
2017-03-27T05:44:45.332Z,30
2017-03-27T05:45:25.819Z,30
2017-03-27T05:46:06.328Z,30
2017-03-27T05:46:46.758Z,30
2017-03-27T05:47:28.602Z,30
2017-03-27T05:48:09.303Z,30
2017-03-27T05:48:49.787Z,35
2017-03-27T05:49:30.402Z,35
2017-03-27T05:50:10.930Z,35
2017-03-27T05:50:51.382Z,35
2017-03-27T05:51:31.939Z,35
2017-03-27T05:52:12.379Z,35
2017-03-27T05:52:52.874Z,35
2017-03-27T05:53:33.397Z,35
2017-03-27T05:54:13.830Z,35
2017-03-27T05:54:54.401Z,40
2017-03-27T05:55:34.887Z,40
2017-03-27T05:56:15.381Z,40
2017-03-27T05:56:55.855Z,40
2017-03-27T05:57:36.361Z,40
2017-03-27T05:58:16.868Z,40
2017-03-27T05:58:57.353Z,40
2017-03-27T05:59:37.860Z,40
2017-03-27T06:00:18.459Z,45
2017-03-27T06:00:58.896Z,45
2017-03-27T06:01:39.452Z,45
2017-03-27T06:02:19.918Z,45
2017-03-27T06:03:00.424Z,45
2017-03-27T06:03:40.916Z,45
2017-03-27T06:04:21.555Z,45
2017-03-27T06:05:02.905Z,45
2017-03-27T06:05:43.351Z,45
2017-03-27T06:06:23.861Z,45
2017-03-27T06:07:04.417Z,45
2017-03-27T06:07:47.190Z,45
2017-03-27T06:08:26.026Z,50
2017-03-27T06:09:06.581Z,50
2017-03-27T06:09:47.017Z,50
2017-03-27T06:10:27.586Z,50
2017-03-27T06:11:08.070Z,50
2017-03-27T06:11:48.568Z,50
2017-03-27T06:12:29.086Z,50
2017-03-27T06:13:09.493Z,50
2017-03-27T06:13:50.034Z,50
2017-03-27T06:14:30.552Z,50
2017-03-27T06:15:11.009Z,50
2017-03-27T06:15:51.472Z,50
2017-03-27T06:16:31.983Z,50
2017-03-27T06:17:12.504Z,50
2017-03-27T06:17:53.101Z,50
2017-03-27T06:18:33.569Z,50
2017-03-27T06:19:14.082Z,50
2017-03-27T06:22:46.224Z,55
2017-03-27T06:23:30.919Z,55
2017-03-27T06:24:30.311Z,55
2017-03-27T06:25:11.343Z,55
2017-03-27T06:25:51.694Z,55
2017-03-27T06:26:32.244Z,55
2017-03-27T06:27:12.756Z,55
2017-03-27T06:27:53.245Z,55
2017-03-27T06:28:33.732Z,55
2017-03-27T06:29:14.249Z,55
2017-03-27T06:29:54.937Z,55
2017-03-27T06:30:35.517Z,55
2017-03-27T06:31:16.292Z,55
2017-03-27T06:31:56.909Z,55
2017-03-27T06:32:37.444Z,55
2017-03-27T06:33:17.895Z,55
2017-03-27T06:33:58.417Z,55
2017-03-27T06:34:38.855Z,55
2017-03-27T06:35:19.340Z,55
2017-03-27T06:36:00.007Z,55
2017-03-27T06:36:40.706Z,55
2017-03-27T06:37:21.199Z,55
2017-03-27T06:38:01.727Z,55
2017-03-27T06:38:42.343Z,55
2017-03-27T06:39:23.043Z,55
2017-03-27T06:40:03.610Z,55
2017-03-27T06:40:44.146Z,55
2017-03-27T06:41:24.591Z,55
2017-03-27T06:42:05.185Z,55
2017-03-27T06:42:45.613Z,55
2017-03-27T06:43:26.155Z,55
2017-03-27T06:44:06.805Z,55
2017-03-27T06:44:47.230Z,55
2017-03-27T06:45:27.860Z,55
2017-03-27T06:46:08.469Z,55
2017-03-27T06:46:49.100Z,55
2017-03-27T06:47:29.636Z,55
2017-03-27T06:48:10.129Z,55
2017-03-27T06:48:50.645Z,55
2017-03-27T06:49:31.206Z,55
2017-03-27T06:50:11.710Z,55
2017-03-27T06:50:52.226Z,55
2017-03-27T06:51:32.620Z,55
2017-03-27T06:52:13.209Z,55
2017-03-27T06:52:53.878Z,55
2017-03-27T06:53:34.945Z,55
2017-03-27T06:54:15.431Z,55
2017-03-27T06:54:56.031Z,55
2017-03-27T06:55:36.489Z,60
2017-03-27T06:56:17.106Z,60
2017-03-27T06:56:57.546Z,60
2017-03-27T06:57:38.052Z,60
2017-03-27T06:58:18.504Z,60
2017-03-27T06:58:58.985Z,60
2017-03-27T06:59:39.575Z,60
2017-03-27T07:00:20.026Z,60
2017-03-27T07:01:00.527Z,60
2017-03-27T07:01:41.761Z,60
2017-03-27T07:02:25.340Z,60
2017-03-27T07:03:05.884Z,60
2017-03-27T07:03:46.570Z,60
2017-03-27T07:04:27.015Z,60
2017-03-27T07:05:07.528Z,70
2017-03-27T07:05:48.189Z,70
2017-03-27T07:06:29.118Z,80
2017-03-27T07:07:09.544Z,85
2017-03-27T07:07:50.297Z,95
2017-03-27T07:08:30.604Z,95
2017-03-27T07:09:11.192Z,95
2017-03-27T07:09:51.678Z,95
2017-03-27T07:10:32.166Z,95
2017-03-27T07:11:12.702Z,95
2017-03-27T07:11:53.238Z,95
2017-03-27T07:12:33.629Z,95
2017-03-27T07:13:14.235Z,95
2017-03-27T07:13:55.468Z,95
2017-03-27T07:14:36.123Z,95
2017-03-27T07:15:16.576Z,95
2017-03-27T07:15:57.059Z,95
2017-03-27T07:16:37.512Z,95
2017-03-27T07:17:18.026Z,95
2017-03-27T07:17:58.571Z,95
2017-03-27T07:18:39.032Z,95
2017-03-27T07:19:19.502Z,95
2017-03-27T07:20:00.062Z,95
2017-03-27T07:20:40.583Z,95
2017-03-27T07:21:21.033Z,95
2017-03-27T07:22:01.529Z,95
2017-03-27T07:22:42.949Z,95
2017-03-27T07:23:22.475Z,95
2017-03-27T07:24:03.041Z,95
2017-03-27T07:24:43.507Z,95
2017-03-27T07:25:24.276Z,95
2017-03-27T07:26:04.828Z,95
2017-03-27T07:26:45.372Z,90
2017-03-27T07:27:25.849Z,90
2017-03-27T07:28:06.361Z,90
2017-03-27T07:28:46.917Z,90
2017-03-27T07:29:27.492Z,90
2017-03-27T07:30:07.954Z,90
2017-03-27T07:30:48.588Z,90
2017-03-27T07:31:28.995Z,90
2017-03-27T07:32:09.459Z,90
2017-03-27T07:32:50.136Z,90
2017-03-27T07:33:30.654Z,90
2017-03-27T07:34:11.099Z,90
2017-03-27T07:34:51.683Z,90
2017-03-27T07:35:32.152Z,90
2017-03-27T07:36:12.719Z,90
2017-03-27T07:36:53.313Z,90
2017-03-27T07:37:33.903Z,90
2017-03-27T07:38:14.592Z,90
2017-03-27T07:38:55.088Z,90
2017-03-27T07:39:35.615Z,85
2017-03-27T07:40:16.182Z,85
2017-03-27T07:40:56.558Z,85
2017-03-27T07:41:37.049Z,85
2017-03-27T07:42:17.648Z,85
2017-03-27T07:42:58.151Z,85
2017-03-27T07:43:38.535Z,80
2017-03-27T07:44:19.088Z,80
2017-03-27T07:44:59.647Z,75
2017-03-27T07:45:39.996Z,75
2017-03-27T07:46:20.486Z,75
2017-03-27T07:47:01.022Z,75
2017-03-27T07:47:41.517Z,75
2017-03-27T07:48:22.105Z,75
2017-03-27T07:49:02.520Z,75
2017-03-27T07:49:42.967Z,75
2017-03-27T07:50:23.700Z,75
2017-03-27T07:51:04.355Z,75
2017-03-27T07:51:44.893Z,75
2017-03-27T07:52:25.459Z,70
2017-03-27T07:53:05.865Z,70
2017-03-27T07:53:46.363Z,70
2017-03-27T07:54:26.971Z,70
2017-03-27T07:55:07.559Z,70
2017-03-27T07:55:48.142Z,70
2017-03-27T07:56:28.554Z,70
2017-03-27T07:57:09.067Z,70
2017-03-27T07:57:49.662Z,70
2017-03-27T07:58:30.158Z,70
2017-03-27T07:59:10.626Z,70
2017-03-27T07:59:51.136Z,70
2017-03-27T08:00:31.635Z,70
2017-03-27T08:01:12.121Z,70
2017-03-27T08:01:52.704Z,70
2017-03-27T08:02:33.303Z,70
2017-03-27T08:03:13.773Z,70
2017-03-27T08:03:54.308Z,70
2017-03-27T08:04:34.753Z,70
2017-03-27T08:05:15.329Z,70
2017-03-27T08:05:55.801Z,70
2017-03-27T08:06:36.225Z,70
2017-03-27T08:07:16.749Z,70
2017-03-27T08:07:57.239Z,70
2017-03-27T08:08:37.803Z,70
2017-03-27T08:09:18.354Z,70
2017-03-27T08:09:58.795Z,70
2017-03-27T08:10:39.377Z,70
2017-03-27T08:11:19.827Z,70
2017-03-27T08:12:00.280Z,70
2017-03-27T08:12:40.957Z,70
2017-03-27T08:13:21.438Z,70
2017-03-27T08:14:01.902Z,70
2017-03-27T08:14:42.355Z,70
2017-03-27T08:15:22.985Z,70
2017-03-27T08:16:03.589Z,70
2017-03-27T08:16:44.050Z,70
2017-03-27T08:17:24.737Z,70
2017-03-27T08:18:05.183Z,70
2017-03-27T08:18:45.764Z,70
2017-03-27T08:19:26.223Z,70
2017-03-27T08:20:06.703Z,70
2017-03-27T08:20:47.137Z,70
2017-03-27T08:21:27.654Z,70
2017-03-27T08:22:08.166Z,70
2017-03-27T08:22:48.606Z,70
2017-03-27T08:23:29.306Z,70
2017-03-27T08:24:09.869Z,70
2017-03-27T08:24:50.414Z,70
2017-03-27T08:25:30.852Z,70
2017-03-27T08:26:11.356Z,70
2017-03-27T08:26:51.822Z,70
2017-03-27T08:30:38.988Z,70
2017-03-27T08:31:19.473Z,70
2017-03-27T08:32:00.145Z,70
2017-03-27T08:32:40.906Z,70
2017-03-27T08:33:21.272Z,70
2017-03-27T08:34:06.937Z,70
2017-03-27T08:34:43.636Z,70
2017-03-27T08:35:24.100Z,70
2017-03-27T08:36:04.588Z,70
2017-03-27T08:36:45.061Z,70
2017-03-27T08:37:25.523Z,70
2017-03-27T08:38:06.065Z,70
2017-03-27T08:38:46.521Z,70
2017-03-27T08:39:27.085Z,70
2017-03-27T08:40:07.553Z,70
2017-03-27T08:40:47.981Z,70
2017-03-27T08:41:28.533Z,70
2017-03-27T08:42:09.099Z,70
2017-03-27T08:42:49.578Z,70
2017-03-27T08:43:30.174Z,70
2017-03-27T08:44:10.723Z,70
2017-03-27T08:44:51.196Z,70
2017-03-27T08:45:31.774Z,70
2017-03-27T08:46:12.280Z,70
2017-03-27T08:46:52.741Z,70
2017-03-27T08:47:33.266Z,70
2017-03-27T08:48:13.732Z,70
2017-03-27T08:48:54.372Z,70
2017-03-27T08:51:26.940Z,70
2017-03-27T08:52:07.414Z,70
2017-03-27T08:52:47.859Z,65
2017-03-27T08:53:28.423Z,65
2017-03-27T08:54:09.046Z,65
2017-03-27T08:54:49.637Z,65
2017-03-27T08:55:30.256Z,65
2017-03-27T08:56:10.717Z,65
2017-03-27T08:56:51.278Z,65
2017-03-27T08:57:31.828Z,65
2017-03-27T08:58:12.267Z,65
2017-03-27T08:58:52.846Z,65
2017-03-27T08:59:33.232Z,65
2017-03-27T09:00:13.707Z,65
2017-03-27T09:00:54.541Z,65
2017-03-27T09:01:34.808Z,65
2017-03-27T09:02:15.308Z,65
2017-03-27T09:02:55.764Z,65
2017-03-27T09:03:36.271Z,65
2017-03-27T09:04:16.720Z,65
2017-03-27T09:04:57.289Z,65
2017-03-27T09:05:37.786Z,65
2017-03-27T09:06:18.338Z,65
2017-03-27T09:06:58.898Z,65
2017-03-27T09:07:39.349Z,65
2017-03-27T09:08:19.895Z,65
2017-03-27T09:09:00.486Z,65
2017-03-27T09:09:41.094Z,65
2017-03-27T09:10:21.580Z,65
2017-03-27T09:11:02.061Z,65
2017-03-27T09:11:42.714Z,65
2017-03-27T09:12:23.247Z,65
2017-03-27T09:13:03.754Z,65
2017-03-27T09:13:44.281Z,65
2017-03-27T09:14:24.802Z,65
2017-03-27T09:15:05.539Z,65
2017-03-27T09:15:46.007Z,65
2017-03-27T09:16:26.481Z,65
2017-03-27T09:17:06.972Z,65
2017-03-27T09:17:47.550Z,65
2017-03-27T09:18:28.007Z,65
2017-03-27T09:19:08.467Z,60
2017-03-27T09:19:48.960Z,65
2017-03-27T09:20:29.432Z,65
2017-03-27T09:21:09.925Z,65
2017-03-27T09:21:50.416Z,60
2017-03-27T09:22:30.935Z,60
2017-03-27T09:23:11.477Z,60
2017-03-27T09:23:51.953Z,65
2017-03-27T09:24:32.460Z,60
2017-03-27T09:25:12.906Z,60
2017-03-27T09:25:53.405Z,60
2017-03-27T09:26:33.878Z,60
2017-03-27T09:27:14.425Z,65
2017-03-27T09:27:54.912Z,65
2017-03-27T09:28:35.396Z,65
2017-03-27T09:29:15.898Z,60
2017-03-27T09:29:56.381Z,65
2017-03-27T09:30:36.985Z,65
2017-03-27T09:31:17.494Z,65
2017-03-27T09:31:58.017Z,65
2017-03-27T09:32:38.529Z,65
2017-03-27T09:33:19.099Z,65
2017-03-27T09:33:59.544Z,65
2017-03-27T09:34:40.139Z,65
2017-03-27T09:35:20.665Z,65
2017-03-27T09:36:01.146Z,65
2017-03-27T09:36:41.762Z,65
2017-03-27T09:37:22.193Z,65
2017-03-27T09:38:02.871Z,65
2017-03-27T09:38:43.386Z,65
2017-03-27T09:39:23.891Z,65
2017-03-27T09:40:04.396Z,65
2017-03-27T09:40:44.847Z,65
2017-03-27T09:41:25.408Z,65
2017-03-27T09:42:05.925Z,65
2017-03-27T09:42:46.349Z,65
2017-03-27T09:43:26.897Z,65
2017-03-27T09:44:07.498Z,65
2017-03-27T09:44:47.939Z,65
2017-03-27T09:45:28.488Z,65
2017-03-27T09:46:08.981Z,65
2017-03-27T09:46:49.502Z,65
2017-03-27T09:47:30.140Z,65
2017-03-27T09:48:10.628Z,65
2017-03-27T09:48:51.110Z,65
2017-03-27T09:49:31.684Z,65
2017-03-27T09:50:12.162Z,65
2017-03-27T09:50:52.661Z,65
2017-03-27T09:51:33.130Z,65
2017-03-27T09:52:13.675Z,65
2017-03-27T09:52:54.304Z,65
2017-03-27T09:53:34.745Z,65
2017-03-27T09:54:15.203Z,65
2017-03-27T09:54:55.674Z,65
2017-03-27T09:55:36.156Z,65
2017-03-27T09:56:16.629Z,65
2017-03-27T09:56:57.148Z,65
2017-03-27T09:57:37.671Z,65
2017-03-27T09:58:18.174Z,65
2017-03-27T09:58:58.725Z,65
2017-03-27T09:59:39.256Z,65
2017-03-27T10:00:20.015Z,65
2017-03-27T10:01:00.503Z,65
2017-03-27T10:01:40.958Z,65
2017-03-27T10:02:21.492Z,65
2017-03-27T10:03:02.280Z,65
2017-03-27T10:03:43.864Z,65
2017-03-27T10:04:24.349Z,65
2017-03-27T10:05:04.855Z,65
2017-03-27T10:05:45.380Z,65
2017-03-27T10:06:25.853Z,65
2017-03-27T10:07:06.361Z,65
2017-03-27T10:07:46.982Z,65
2017-03-27T10:08:27.456Z,65
2017-03-27T10:09:07.874Z,65
2017-03-27T10:09:48.380Z,65